Time;durP1;ratioP1;P1;durP2;ratioP2;P2;SDS_P1;SDS_P2;PMS_P1;PMS_P2;Temp;Humidity;BMP_temperature;BMP_pressure;BME280_temperature;BME280_humidity;BME280_pressure;Samples;Min_cycle;Max_cycle;Signal;HPM_P1;HPM_P2
2023/06/14 00:02:10;;;;;;;0.75;0.65;;;;;;;24.69;56.67;100121.22;7390121;19;20390;-81
2023/06/14 00:04:38;;;;;;;1.73;0.82;;;;;;;25.15;56.27;100136.28;7397051;19;20018;-80
2023/06/14 00:07:08;;;;;;;0.90;0.55;;;;;;;24.62;56.67;100130.53;7398305;19;20014;-81
2023/06/14 00:09:35;;;;;;;1.48;0.60;;;;;;;24.50;56.09;100140.75;7394073;19;20022;-80
2023/06/14 00:12:01;;;;;;;2.40;1.00;;;;;;;24.35;56.22;100140.69;7400908;19;20018;-80
2023/06/14 00:14:27;;;;;;;0.47;0.47;;;;;;;24.29;55.68;100142.97;7396556;19;20474;-80
2023/06/14 00:16:58;;;;;;;3.50;0.98;;;;;;;24.26;55.24;100138.38;7397382;19;20514;-81
2023/06/14 00:19:27;;;;;;;1.85;0.50;;;;;;;24.26;55.45;100136.31;7395671;19;20057;-80
2023/06/14 00:21:53;;;;;;;1.33;0.52;;;;;;;24.27;55.58;100139.94;7396129;19;20113;-81
2023/06/14 00:24:19;;;;;;;0.85;0.30;;;;;;;24.14;54.85;100142.91;7400989;19;20354;-81
2023/06/14 00:26:47;;;;;;;0.70;0.40;;;;;;;24.12;54.55;100146.31;7398436;19;20047;-82
2023/06/14 00:29:13;;;;;;;4.90;0.95;;;;;;;24.20;54.13;100140.66;7394522;19;20497;-80
2023/06/14 00:31:39;;;;;;;0.80;0.73;;;;;;;24.49;53.68;100144.94;7395960;19;20500;-80
2023/06/14 00:34:05;;;;;;;0.40;0.40;;;;;;;24.64;52.66;100144.97;7400068;19;20026;-80
2023/06/14 00:36:33;;;;;;;1.45;1.05;;;;;;;25.39;51.44;100144.25;7399770;19;20011;-80
2023/06/14 00:38:59;;;;;;;6.18;1.48;;;;;;;25.17;50.97;100145.03;7395243;19;20458;-80
2023/06/14 00:41:25;;;;;;;0.75;0.40;;;;;;;24.69;51.64;100138.31;7396903;19;20025;-80
2023/06/14 00:43:52;;;;;;;4.15;0.77;;;;;;;24.16;52.63;100143.09;7392449;19;20018;-80
2023/06/14 00:46:19;;;;;;;4.30;0.90;;;;;;;23.79;53.78;100136.66;7399156;19;20081;-80
2023/06/14 00:48:46;;;;;;;0.50;0.50;;;;;;;23.53;54.12;100148.25;7394005;19;20037;-81
2023/06/14 00:51:12;;;;;;;0.52;0.50;;;;;;;30.39;43.23;100136.06;7394109;19;20025;-80
2023/06/14 00:53:39;;;;;;;0.88;0.65;;;;;;;20.43;55.93;100154.69;7395038;19;20021;-81
2023/06/14 00:56:05;;;;;;;1.08;0.68;;;;;;;16.80;100.00;100154.63;7395210;19;20029;-80
2023/06/14 00:58:32;;;;;;;1.38;0.50;;;;;;;19.13;94.64;100154.41;7399573;19;20022;-80
2023/06/14 01:00:59;;;;;;;2.25;0.57;;;;;;;31.19;42.70;100131.69;7396970;19;20302;-81
2023/06/14 01:03:25;;;;;;;1.00;0.70;;;;;;;32.83;37.64;100132.59;7394324;19;20030;-81
2023/06/14 01:06:02;;;;;;;0.95;0.38;;;;;;;25.62;47.07;100144.25;7398814;19;20482;-80
2023/06/14 01:09:09;;;;;;;0.50;0.50;;;;;;;31.35;39.34;100130.69;7393650;19;20019;-81
2023/06/14 01:11:52;;;;;;;0.90;0.30;;;;;;;32.25;35.85;100131.72;7394357;19;20018;-80
2023/06/14 01:14:19;;;;;;;0.85;0.32;;;;;;;32.80;34.59;100130.97;7394946;19;20039;-81
2023/06/14 01:16:47;;;;;;;1.75;0.30;;;;;;;32.53;33.96;100134.31;7394690;19;20025;-81
2023/06/14 01:19:15;;;;;;;0.82;0.45;;;;;;;29.40;36.37;100133.59;7395034;19;20025;-81
2023/06/14 01:21:41;;;;;;;1.20;0.80;;;;;;;30.07;36.70;100122.16;7396363;19;20022;-81
2023/06/14 01:24:10;;;;;;;0.98;0.60;;;;;;;18.87;59.27;100143.59;7391587;19;20236;-80
2023/06/14 01:26:38;;;;;;;1.00;0.55;;;;;;;13.55;100.00;100152.59;7394508;19;20405;-81
2023/06/14 01:29:06;;;;;;;1.17;0.70;;;;;;;14.26;100.00;100151.91;7393142;19;20075;-81
2023/06/14 01:31:41;;;;;;;1.25;0.60;;;;;;;21.38;78.60;100134.06;7395064;19;20374;-81
2023/06/14 01:34:08;;;;;;;0.47;0.32;;;;;;;15.61;98.63;100139.25;7397127;19;20019;-80
2023/06/14 01:36:36;;;;;;;2.28;0.93;;;;;;;16.09;100.00;100153.22;7399297;19;20018;-80
2023/06/14 01:39:04;;;;;;;1.15;0.52;;;;;;;18.58;99.60;100150.00;7390886;19;20022;-80
2023/06/14 01:41:31;;;;;;;0.50;0.50;;;;;;;26.70;57.81;100131.25;7391295;19;20478;-81
2023/06/14 01:43:58;;;;;;;0.73;0.22;;;;;;;29.76;45.91;100122.00;7390635;19;20018;-81
2023/06/14 01:46:25;;;;;;;0.63;0.35;;;;;;;31.57;39.28;100127.84;7396857;19;20006;-81
2023/06/14 01:48:53;;;;;;;0.85;0.52;;;;;;;23.92;49.31;100132.91;7393221;19;20081;-81
2023/06/14 01:51:20;;;;;;;1.17;1.05;;;;;;;20.70;64.08;100130.88;7395078;19;20018;-80
2023/06/14 01:53:46;;;;;;;0.35;0.22;;;;;;;21.07;92.10;100138.53;7394436;19;20330;-81
2023/06/14 01:56:13;;;;;;;2.15;0.40;;;;;;;23.71;56.45;100135.88;7394180;19;20015;-80
2023/06/14 01:58:40;;;;;;;2.45;1.27;;;;;;;26.29;52.37;100120.44;7396049;19;20033;-81
2023/06/14 02:01:07;;;;;;;0.25;0.25;;;;;;;22.37;57.42;100131.28;7393458;19;20616;-80
2023/06/14 02:03:34;;;;;;;2.78;0.88;;;;;;;16.95;79.61;100143.91;7391459;19;20370;-80
2023/06/14 02:06:00;;;;;;;1.85;1.13;;;;;;;17.44;100.00;100143.03;7395565;19;20039;-81
2023/06/14 02:08:26;;;;;;;3.55;1.58;;;;;;;25.23;61.30;100126.41;7391729;19;20044;-81
2023/06/14 02:10:53;;;;;;;1.42;0.43;;;;;;;30.46;42.89;100111.38;7397235;19;20123;-80
2023/06/14 02:13:21;;;;;;;0.82;0.50;;;;;;;31.71;38.03;100108.63;7392268;19;20102;-80
2023/06/14 02:15:51;;;;;;;1.63;0.77;;;;;;;31.00;37.82;100112.41;7393739;19;20492;-81
2023/06/14 02:18:17;;;;;;;1.00;0.73;;;;;;;32.06;36.08;100118.97;7392108;19;20024;-81
2023/06/14 02:20:43;;;;;;;0.57;0.38;;;;;;;32.36;35.11;100113.66;7392493;19;20022;-80
2023/06/14 02:23:09;;;;;;;17.58;1.40;;;;;;;31.77;34.84;100118.44;7396710;19;20029;-80
2023/06/14 02:25:35;;;;;;;0.30;0.25;;;;;;;31.56;34.87;100121.34;7390751;19;20015;-80
2023/06/14 02:28:01;;;;;;;1.50;1.00;;;;;;;32.22;34.60;100119.28;7393192;19;20212;-80
2023/06/14 02:30:28;;;;;;;2.67;0.82;;;;;;;29.91;37.42;100124.59;7391927;19;20052;-80
2023/06/14 02:32:56;;;;;;;1.95;1.05;;;;;;;30.81;34.88;100121.09;7395972;19;20019;-80
2023/06/14 02:35:26;;;;;;;1.77;0.70;;;;;;;30.30;35.43;100121.69;7396742;19;20018;-80
2023/06/14 02:37:53;;;;;;;0.57;0.45;;;;;;;25.21;42.53;100123.34;7392024;19;20471;-80
2023/06/14 02:40:23;;;;;;;0.60;0.57;;;;;;;23.78;47.33;100120.16;7388814;19;20469;-80
2023/06/14 02:42:49;;;;;;;1.25;0.70;;;;;;;23.13;50.35;100129.94;7391554;19;20049;-80
2023/06/14 02:45:17;;;;;;;0.98;0.82;;;;;;;23.06;51.73;100128.56;7395522;19;20031;-80
2023/06/14 02:47:43;;;;;;;2.17;1.30;;;;;;;22.87;53.29;100122.31;7393782;19;20044;-81
2023/06/14 02:50:12;;;;;;;2.30;1.00;;;;;;;22.87;54.40;100121.56;7389919;19;20347;-80
2023/06/14 02:52:41;;;;;;;0.40;0.38;;;;;;;22.74;55.26;100130.16;7391841;19;20389;-81
2023/06/14 02:55:09;;;;;;;0.35;0.20;;;;;;;22.04;57.76;100124.25;7390486;19;20049;-81
2023/06/14 02:57:35;;;;;;;0.75;0.30;;;;;;;22.15;58.06;100129.69;7394957;19;20063;-80
2023/06/14 03:00:04;;;;;;;1.15;0.77;;;;;;;22.43;57.97;100124.16;7389452;19;20022;-80
2023/06/14 03:02:32;;;;;;;2.75;1.17;;;;;;;22.58;57.50;100123.53;7390138;19;20017;-81
2023/06/14 03:05:01;;;;;;;2.53;0.40;;;;;;;22.57;57.37;100122.78;7391020;19;20014;-80
2023/06/14 03:07:29;;;;;;;0.77;0.40;;;;;;;22.20;58.31;100125.94;7389686;19;20334;-80
2023/06/14 03:09:56;;;;;;;1.38;0.45;;;;;;;22.42;57.60;100128.28;7394006;19;20010;-80
2023/06/14 03:12:23;;;;;;;0.73;0.30;;;;;;;21.94;58.94;100134.50;7390691;19;20031;-80
2023/06/14 03:14:50;;;;;;;3.33;0.77;;;;;;;21.98;59.83;100134.19;7388167;19;20346;-80
2023/06/14 03:17:19;;;;;;;1.50;0.57;;;;;;;21.98;59.97;100129.31;7387671;19;20099;-80
2023/06/14 03:19:46;;;;;;;2.85;0.22;;;;;;;22.26;60.17;100137.94;7384411;19;20014;-80
2023/06/14 03:22:13;;;;;;;1.38;0.70;;;;;;;21.43;64.76;100133.22;7384894;19;20018;-80
2023/06/14 03:24:41;;;;;;;6.95;0.73;;;;;;;21.41;64.55;100133.00;7384965;19;20537;-80
2023/06/14 03:27:12;;;;;;;1.80;0.55;;;;;;;22.02;61.82;100129.72;7385069;19;20022;-80
2023/06/14 03:29:42;;;;;;;;;;;;;;;21.99;62.01;100142.16;7385336;19;20073;-80
2023/06/14 03:32:08;;;;;;;0.40;0.40;;;;;;;22.02;61.86;100140.31;7391394;19;19923;-80
2023/06/14 03:34:41;;;;;;;0.40;0.40;;;;;;;22.26;60.71;100132.25;7388562;19;20131;-80
2023/06/14 03:37:10;;;;;;;0.82;0.82;;;;;;;22.02;59.81;100140.31;7385165;19;20007;-80
2023/06/14 03:39:36;;;;;;;1.02;0.50;;;;;;;22.52;59.10;100143.53;7390891;19;20096;-80
2023/06/14 03:42:03;;;;;;;0.30;0.30;;;;;;;22.84;58.01;100142.56;7388912;19;20039;-80
2023/06/14 03:44:31;;;;;;;0.68;0.40;;;;;;;22.84;57.64;100136.88;7392857;19;20030;-80
2023/06/14 03:46:57;;;;;;;2.05;0.80;;;;;;;22.89;56.94;100138.81;7388069;19;20420;-80
2023/06/14 03:49:25;;;;;;;0.68;0.30;;;;;;;22.60;57.93;100144.41;7388810;19;20018;-80
2023/06/14 03:51:52;;;;;;;1.33;1.23;;;;;;;22.40;58.57;100150.78;7389686;19;20019;-80
2023/06/14 03:54:21;;;;;;;0.90;0.40;;;;;;;23.04;56.81;100150.31;7389114;19;20014;-80
2023/06/14 03:56:48;;;;;;;2.55;0.70;;;;;;;22.65;57.67;100144.84;7394628;19;20081;-80
2023/06/14 03:59:14;;;;;;;0.73;0.50;;;;;;;22.84;56.52;100145.41;7387754;19;20022;-80
2023/06/14 04:01:46;;;;;;;0.40;0.40;;;;;;;22.59;57.60;100148.56;7388192;19;20011;-80
2023/06/14 04:04:16;;;;;;;2.13;0.50;;;;;;;23.01;56.43;100148.56;7387090;19;20252;-80
2023/06/14 04:06:42;;;;;;;0.30;0.30;;;;;;;23.18;55.56;100146.06;7393806;19;20042;-80
2023/06/14 04:09:10;;;;;;;2.30;0.65;;;;;;;23.26;55.00;100141.19;7388323;19;20018;-80
2023/06/14 04:11:36;;;;;;;10.60;1.33;;;;;;;23.28;55.11;100142.16;7388969;19;20031;-80
2023/06/14 04:14:03;;;;;;;0.75;0.40;;;;;;;23.13;55.23;100147.72;7390611;19;20027;-80
2023/06/14 04:16:29;;;;;;;2.20;0.40;;;;;;;23.71;54.26;100149.31;7388219;19;20014;-80
2023/06/14 04:18:57;;;;;;;0.35;0.35;;;;;;;23.79;53.77;100148.03;7392856;19;20074;-80
2023/06/14 04:21:24;;;;;;;0.75;0.40;;;;;;;22.76;56.20;100151.00;7389472;19;20496;-80
2023/06/14 04:23:55;;;;;;;0.43;0.43;;;;;;;22.97;57.16;100154.63;7387309;19;20018;-80
2023/06/14 04:26:29;;;;;;;;;;;;;;;22.77;57.46;100163.13;7389275;19;20044;-80
2023/06/14 04:28:56;;;;;;;0.77;0.73;;;;;;;22.63;58.68;100153.13;7388029;19;19931;-81
2023/06/14 04:31:26;;;;;;;2.65;0.70;;;;;;;22.39;59.80;100157.75;7388117;19;20013;-80
2023/06/14 04:33:53;;;;;;;3.22;0.77;;;;;;;22.71;59.19;100159.66;7389508;19;20070;-80
2023/06/14 04:36:22;;;;;;;1.75;0.93;;;;;;;22.76;59.55;100150.25;7392505;19;20484;-80
2023/06/14 04:38:49;;;;;;;0.82;0.73;;;;;;;23.35;58.92;100154.94;7387542;19;20336;-80
2023/06/14 04:41:18;;;;;;;3.40;0.40;;;;;;;23.11;58.38;100158.13;7388487;19;20453;-80
2023/06/14 04:43:48;;;;;;;0.90;0.70;;;;;;;23.23;58.56;100159.38;7385447;19;20011;-80
2023/06/14 04:46:17;;;;;;;0.82;0.35;;;;;;;24.01;58.32;100163.69;7387637;19;20045;-80
2023/06/14 04:48:43;;;;;;;0.85;0.50;;;;;;;23.64;56.92;100159.31;7391170;19;20110;-80
2023/06/14 04:51:11;;;;;;;2.40;0.38;;;;;;;23.33;57.59;100151.91;7395240;19;20021;-80
2023/06/14 04:53:37;;;;;;;5.15;0.93;;;;;;;22.94;58.74;100158.56;7397071;19;20082;-81
2023/06/14 04:56:04;;;;;;;0.63;0.38;;;;;;;24.90;54.60;100153.19;7395580;19;20461;-80
2023/06/14 04:58:32;;;;;;;0.95;0.65;;;;;;;23.16;57.87;100160.06;7394426;19;20039;-80
2023/06/14 05:00:59;;;;;;;4.05;1.35;;;;;;;24.99;56.87;100155.50;7395135;19;20015;-80
2023/06/14 05:03:27;;;;;;;0.90;0.75;;;;;;;28.36;46.27;100152.56;7393634;19;20013;-81
2023/06/14 05:05:53;;;;;;;0.80;0.73;;;;;;;30.69;42.60;100146.88;7397379;19;20020;-80
2023/06/14 05:08:23;;;;;;;1.05;1.05;;;;;;;31.36;40.32;100146.59;7393850;19;20011;-80
2023/06/14 05:10:50;;;;;;;1.80;0.40;;;;;;;29.54;42.81;100143.25;7394236;19;20473;-80
2023/06/14 05:13:17;;;;;;;3.17;1.25;;;;;;;26.52;46.63;100154.59;7400063;19;20019;-81
2023/06/14 05:15:44;;;;;;;2.00;0.75;;;;;;;25.16;50.67;100155.69;7395818;19;20018;-80
2023/06/14 05:18:11;;;;;;;0.77;0.77;;;;;;;24.73;52.59;100150.13;7395525;19;20014;-80
2023/06/14 05:20:37;;;;;;;2.00;1.00;;;;;;;24.78;53.18;100147.09;7394934;19;20035;-80
2023/06/14 05:23:03;;;;;;;0.50;0.35;;;;;;;24.96;53.46;100155.84;7392648;19;20094;-80
2023/06/14 05:25:29;;;;;;;1.85;0.90;;;;;;;24.99;54.17;100149.03;7394185;19;20711;-80
2023/06/14 05:27:55;;;;;;;2.80;1.08;;;;;;;25.04;54.16;100150.91;7397334;19;20342;-81
2023/06/14 05:30:21;;;;;;;3.13;0.95;;;;;;;24.41;56.07;100144.13;7391669;19;20044;-80
2023/06/14 05:32:47;;;;;;;5.57;0.60;;;;;;;24.41;57.25;100144.13;7395835;19;20010;-80
2023/06/14 05:35:14;;;;;;;7.68;1.27;;;;;;;25.48;55.31;100135.91;7394625;19;20035;-80
2023/06/14 05:37:40;;;;;;;3.13;0.52;;;;;;;25.17;55.07;100140.09;7392688;19;20022;-81
2023/06/14 05:40:08;;;;;;;0.77;0.50;;;;;;;30.14;47.66;100131.97;7393657;19;20078;-80
2023/06/14 05:42:34;;;;;;;1.38;0.50;;;;;;;30.84;44.81;100140.00;7395422;19;20018;-80
2023/06/14 05:45:01;;;;;;;1.95;1.08;;;;;;;27.76;46.93;100141.81;7395811;19;20011;-80
2023/06/14 05:47:27;;;;;;;0.60;0.50;;;;;;;26.66;50.02;100142.31;7394206;19;20042;-81
2023/06/14 05:49:55;;;;;;;2.00;0.30;;;;;;;31.29;43.06;100133.16;7393173;19;20488;-80
2023/06/14 05:52:21;;;;;;;0.73;0.32;;;;;;;22.24;63.21;100148.34;7396518;19;20412;-81
2023/06/14 05:54:47;;;;;;;1.30;1.02;;;;;;;21.70;72.14;100148.94;7394727;19;20018;-80
2023/06/14 05:57:13;;;;;;;4.30;0.75;;;;;;;21.74;78.09;100149.34;7393275;19;20014;-80
2023/06/14 05:59:40;;;;;;;3.03;0.70;;;;;;;16.51;100.00;100151.03;7389265;19;20021;-80
2023/06/14 06:02:06;;;;;;;4.13;0.80;;;;;;;20.01;98.78;100144.22;7392013;19;20078;-80
2023/06/14 06:04:32;;;;;;;1.58;0.40;;;;;;;14.53;100.00;100164.72;7394949;19;20032;-80
2023/06/14 06:06:58;;;;;;;1.58;0.50;;;;;;;15.30;100.00;100164.53;7396832;19;20402;-81
2023/06/14 06:09:24;;;;;;;1.30;0.52;;;;;;;15.07;100.00;100160.84;7396493;19;20319;-80
2023/06/14 06:11:50;;;;;;;3.40;0.68;;;;;;;16.91;100.00;100163.09;7394140;19;20049;-81
2023/06/14 06:14:16;;;;;;;1.10;0.75;;;;;;;15.32;100.00;100170.44;7394988;19;20034;-81
2023/06/14 06:16:42;;;;;;;1.52;0.68;;;;;;;14.08;100.00;100167.00;7396674;19;20019;-81
2023/06/14 06:19:08;;;;;;;15.88;0.50;;;;;;;13.25;100.00;100165.16;7393867;19;20045;-80
2023/06/14 06:21:35;;;;;;;1.45;0.73;;;;;;;14.20;100.00;100162.31;7394870;19;20078;-82
2023/06/14 06:24:03;;;;;;;0.30;0.20;;;;;;;13.27;100.00;100171.03;7392274;19;20082;-82
2023/06/14 06:26:29;;;;;;;0.20;0.20;;;;;;;13.43;100.00;100178.88;7391535;19;20014;-82
2023/06/14 06:28:57;;;;;;;1.20;0.45;;;;;;;13.13;100.00;100183.78;7393008;19;20347;-82
2023/06/14 06:31:23;;;;;;;0.75;0.38;;;;;;;13.41;100.00;100176.56;7391628;19;20019;-82
2023/06/14 06:33:50;;;;;;;1.85;0.57;;;;;;;13.04;100.00;100186.66;7393997;19;20042;-81
2023/06/14 06:36:16;;;;;;;0.22;0.22;;;;;;;14.05;100.00;100172.81;7395692;19;20017;-82
2023/06/14 06:38:42;;;;;;;0.85;0.52;;;;;;;13.44;100.00;100174.84;7390790;19;20014;-81
2023/06/14 06:41:08;;;;;;;1.65;0.65;;;;;;;13.34;100.00;100181.81;7395717;19;20010;-81
2023/06/14 06:43:34;;;;;;;0.30;0.30;;;;;;;13.40;100.00;100183.44;7391466;19;20371;-81
2023/06/14 06:46:02;;;;;;;13.35;0.57;;;;;;;13.48;100.00;100178.19;7392488;19;20018;-82
2023/06/14 06:48:28;;;;;;;0.40;0.20;;;;;;;13.66;100.00;100187.09;7391816;19;20018;-81
2023/06/14 06:50:54;;;;;;;1.15;0.63;;;;;;;13.84;100.00;100185.31;7391680;19;20014;-82
2023/06/14 06:53:21;;;;;;;1.65;1.02;;;;;;;13.95;100.00;100185.41;7395982;19;20053;-82
2023/06/14 06:55:47;;;;;;;0.30;0.30;;;;;;;13.96;100.00;100193.34;7397162;19;20020;-81
2023/06/14 06:58:13;;;;;;;1.58;0.70;;;;;;;14.00;100.00;100184.72;7393970;19;20033;-81
2023/06/14 07:00:40;;;;;;;0.55;0.10;;;;;;;14.36;100.00;100184.13;7392493;19;20420;-81
2023/06/14 07:03:06;;;;;;;2.20;0.15;;;;;;;15.32;100.00;100181.66;7395676;19;20082;-81
2023/06/14 07:05:33;;;;;;;0.63;0.30;;;;;;;16.76;100.00;100183.03;7393323;19;20014;-81
2023/06/14 07:07:59;;;;;;;1.05;0.30;;;;;;;16.94;100.00;100170.47;7391554;19;20021;-82
2023/06/14 07:10:25;;;;;;;0.68;0.35;;;;;;;16.98;100.00;100179.47;7391315;19;20052;-81
2023/06/14 07:12:51;;;;;;;0.77;0.47;;;;;;;15.37;100.00;100183.72;7392752;19;20091;-81
2023/06/14 07:15:17;;;;;;;4.05;0.45;;;;;;;15.10;100.00;100182.25;7392354;19;20018;-81
2023/06/14 07:17:43;;;;;;;2.80;0.80;;;;;;;15.96;100.00;100187.38;7391962;19;20023;-81
2023/06/14 07:20:13;;;;;;;2.10;0.45;;;;;;;17.15;100.00;100180.22;7388798;19;20031;-81
2023/06/14 07:22:41;;;;;;;5.78;0.50;;;;;;;16.13;100.00;100187.47;7391601;19;20025;-81
2023/06/14 07:25:09;;;;;;;1.02;0.68;;;;;;;15.75;100.00;100188.81;7389478;19;20594;-80
2023/06/14 07:27:35;;;;;;;0.55;0.30;;;;;;;17.97;100.00;100187.72;7391536;19;20022;-80
2023/06/14 07:30:01;;;;;;;1.80;0.57;;;;;;;17.14;100.00;100195.56;7390660;19;20007;-79
2023/06/14 07:32:27;;;;;;;2.22;0.50;;;;;;;19.64;100.00;100199.34;7391905;19;20038;-80
2023/06/14 07:34:53;;;;;;;1.10;0.10;;;;;;;19.47;100.00;100189.50;7390436;19;20010;-80
2023/06/14 07:37:20;;;;;;;0.73;0.28;;;;;;;17.61;100.00;100191.66;7390649;19;20031;-80
2023/06/14 07:39:46;;;;;;;0.47;0.17;;;;;;;17.57;100.00;100194.00;7390839;19;20031;-80
2023/06/14 07:42:12;;;;;;;2.65;0.75;;;;;;;18.51;100.00;100190.81;7391430;19;20078;-80
2023/06/14 07:44:38;;;;;;;2.90;0.28;;;;;;;19.74;100.00;100185.66;7391818;19;20526;-80
2023/06/14 07:47:04;;;;;;;6.13;0.43;;;;;;;17.61;100.00;100193.72;7392607;19;20017;-81
2023/06/14 07:49:31;;;;;;;1.00;0.50;;;;;;;17.88;100.00;100202.09;7390378;19;20536;-80
2023/06/14 07:51:58;;;;;;;1.27;0.40;;;;;;;17.27;100.00;100204.25;7394372;19;20497;-81
2023/06/14 07:54:26;;;;;;;2.28;0.63;;;;;;;17.10;100.00;100195.06;7389915;19;20007;-80
2023/06/14 07:56:52;;;;;;;1.15;0.47;;;;;;;17.12;100.00;100198.13;7392203;19;20023;-80
2023/06/14 07:59:18;;;;;;;5.90;1.35;;;;;;;17.82;100.00;100203.41;7390323;19;20108;-80
2023/06/14 08:01:46;;;;;;;3.65;0.77;;;;;;;17.43;100.00;100200.66;7390763;19;20014;-80
2023/06/14 08:04:14;;;;;;;2.45;0.30;;;;;;;18.07;100.00;100191.00;7388101;19;20385;-81
2023/06/14 08:06:43;;;;;;;1.50;0.30;;;;;;;17.72;100.00;100202.91;7393994;19;20094;-81
2023/06/14 08:09:11;;;;;;;0.43;0.30;;;;;;;16.99;100.00;100200.69;7389261;19;20018;-81
2023/06/14 08:11:37;;;;;;;3.80;0.60;;;;;;;17.29;100.00;100196.06;7391286;19;20014;-80
2023/06/14 08:14:03;;;;;;;0.30;0.10;;;;;;;19.53;100.00;100193.81;7394505;19;20018;-80
2023/06/14 08:16:29;;;;;;;2.22;0.63;;;;;;;18.17;100.00;100195.81;7389355;19;20043;-81
2023/06/14 08:18:56;;;;;;;1.10;0.10;;;;;;;18.93;100.00;100200.75;7390562;19;20646;-81
2023/06/14 08:21:22;;;;;;;0.47;0.43;;;;;;;18.81;100.00;100190.84;7390680;19;20044;-81
2023/06/14 08:23:48;;;;;;;1.90;0.45;;;;;;;20.93;100.00;100191.50;7394483;19;20054;-81
2023/06/14 08:26:14;;;;;;;6.40;1.17;;;;;;;25.96;100.00;100178.78;7398818;19;20015;-81
2023/06/14 08:28:40;;;;;;;0.50;0.30;;;;;;;25.50;97.68;100184.59;7396788;19;20006;-82
2023/06/14 08:31:08;;;;;;;0.65;0.10;;;;;;;25.83;94.28;100184.72;7396978;19;20035;-81
2023/06/14 08:33:35;;;;;;;3.08;0.43;;;;;;;22.18;100.00;100185.31;7402212;19;20010;-81
2023/06/14 08:36:01;;;;;;;0.60;0.43;;;;;;;27.93;82.85;100184.75;7401094;19;20042;-81
2023/06/14 08:38:27;;;;;;;3.40;0.30;;;;;;;29.21;76.76;100188.06;7397005;19;20094;-81
2023/06/14 08:40:58;;;;;;;1.75;0.57;;;;;;;33.90;54.72;100177.47;7395592;19;20026;-81
2023/06/14 08:43:24;;;;;;;1.02;0.13;;;;;;;35.22;47.37;100172.03;7397375;19;20018;-81
2023/06/14 08:45:57;;;;;;;2.65;0.17;;;;;;;29.42;59.50;100179.66;7393692;19;20037;-81
2023/06/14 08:48:26;;;;;;;0.52;0.30;;;;;;;28.92;58.35;100185.03;7396336;19;20038;-81
2023/06/14 08:51:01;;;;;;;3.20;0.75;;;;;;;22.53;100.00;100187.66;7396953;19;20015;-81
2023/06/14 08:53:31;;;;;;;3.85;0.45;;;;;;;21.52;100.00;100183.81;7397648;19;20025;-81
2023/06/14 08:56:01;;;;;;;3.85;0.55;;;;;;;21.75;100.00;100190.56;7397201;19;20014;-81
2023/06/14 08:58:31;;;;;;;5.63;0.40;;;;;;;22.00;100.00;100188.31;7396696;19;20596;-81
2023/06/14 09:00:59;;;;;;;1.55;0.30;;;;;;;31.98;67.90;100170.31;7396991;19;20023;-81
2023/06/14 09:03:29;;;;;;;5.10;0.22;;;;;;;24.80;97.14;100180.72;7397924;19;20098;-82
2023/06/14 09:05:58;;;;;;;1.27;0.15;;;;;;;22.26;100.00;100183.34;7397965;19;20118;-81
2023/06/14 09:08:31;;;;;;;5.28;0.65;;;;;;;32.87;63.14;100167.47;7396008;19;20074;-81
2023/06/14 09:10:57;;;;;;;0.55;0.28;;;;;;;34.26;51.83;100179.63;7394211;19;20019;-81
2023/06/14 09:13:23;;;;;;;2.17;0.32;;;;;;;34.56;48.35;100171.97;7399594;19;20021;-81
2023/06/14 09:15:51;;;;;;;0.80;0.43;;;;;;;33.95;47.76;100176.34;7394295;19;20120;-80
2023/06/14 09:18:17;;;;;;;1.88;0.35;;;;;;;28.88;56.02;100184.72;7394441;19;20371;-81
2023/06/14 09:20:43;;;;;;;0.50;0.20;;;;;;;24.43;97.42;100181.38;7398363;19;20086;-80
2023/06/14 09:23:11;;;;;;;7.85;0.55;;;;;;;26.90;91.46;100178.75;7403636;19;20014;-80
2023/06/14 09:25:43;;;;;;;1.00;0.20;;;;;;;24.60;100.00;100190.88;7421439;19;20029;-80
2023/06/14 09:28:12;;;;;;;2.65;0.45;;;;;;;22.70;100.00;100192.97;7422729;19;20031;-80
2023/06/14 09:30:38;;;;;;;1.48;0.68;;;;;;;24.23;96.00;100185.84;7407401;19;20088;-81
2023/06/14 09:33:05;;;;;;;5.93;0.50;;;;;;;22.93;100.00;100193.19;7399139;19;20050;-81
2023/06/14 09:35:32;;;;;;;3.22;0.30;;;;;;;25.83;87.26;100190.44;7394595;19;20018;-80
2023/06/14 09:37:58;;;;;;;0.73;0.20;;;;;;;23.71;100.00;100189.13;7393226;19;20026;-81
2023/06/14 09:40:24;;;;;;;1.33;0.30;;;;;;;23.02;100.00;100192.72;7392663;19;20086;-81
2023/06/14 09:42:51;;;;;;;1.98;0.10;;;;;;;22.84;100.00;100190.84;7394256;19;20010;-81
2023/06/14 09:45:21;;;;;;;0.35;0.22;;;;;;;24.43;100.00;100198.44;7395582;19;20019;-81
2023/06/14 09:47:49;;;;;;;2.05;0.38;;;;;;;24.77;91.64;100199.72;7395799;19;20022;-81
2023/06/14 09:50:15;;;;;;;3.33;0.75;;;;;;;26.19;85.95;100191.69;7393377;19;20030;-81
2023/06/14 09:52:44;;;;;;;1.23;0.15;;;;;;;26.05;82.25;100186.75;7395077;19;20043;-82
2023/06/14 09:55:14;;;;;;;2.63;0.38;;;;;;;33.42;56.91;100174.53;7396071;19;20035;-81
2023/06/14 09:57:43;;;;;;;;;;;;;;;28.96;62.42;100190.31;7396563;19;20093;-82
2023/06/14 10:00:11;;;;;;;1.17;0.40;;;;;;;27.40;73.67;100179.53;7393223;19;19929;-81
2023/06/14 10:02:42;;;;;;;0.85;0.17;;;;;;;31.60;55.92;100172.72;7395374;19;20018;-82
2023/06/14 10:05:11;;;;;;;1.85;0.20;;;;;;;25.64;87.78;100178.69;7394871;19;20010;-82
2023/06/14 10:07:44;;;;;;;4.45;1.17;;;;;;;24.25;96.07;100186.03;7395204;19;20019;-82
2023/06/14 10:10:11;;;;;;;1.95;0.65;;;;;;;23.75;100.00;100187.47;7392159;19;20038;-83
2023/06/14 10:12:38;;;;;;;7.47;0.60;;;;;;;23.87;100.00;100182.97;7394853;19;20469;-83
2023/06/14 10:15:05;;;;;;;2.60;0.15;;;;;;;23.16;100.00;100177.13;7394127;19;20030;-83
2023/06/14 10:17:52;;;;;;;7.55;0.40;;;;;;;23.77;100.00;100173.44;7395704;19;20033;-82
2023/06/14 10:20:41;;;;;;;4.28;0.40;;;;;;;23.57;100.00;100182.78;7391862;19;20021;-82
2023/06/14 10:23:13;;;;;;;1.05;0.28;;;;;;;23.33;100.00;100174.63;7395321;19;20465;-82
2023/06/14 10:25:39;;;;;;;1.58;0.30;;;;;;;24.66;98.36;100182.19;7393769;19;20046;-82
2023/06/14 10:28:11;;;;;;;1.10;0.30;;;;;;;24.53;98.06;100188.03;7393622;19;20019;-82
2023/06/14 10:30:37;;;;;;;5.50;0.65;;;;;;;25.66;90.85;100176.00;7393260;19;20010;-82
2023/06/14 10:33:06;;;;;;;1.58;0.20;;;;;;;25.00;93.08;100176.19;7395571;19;20023;-83
2023/06/14 10:35:32;;;;;;;0.43;0.20;;;;;;;23.41;100.00;100188.91;7396502;19;20011;-82
2023/06/14 10:38:09;;;;;;;0.60;0.13;;;;;;;24.37;96.40;100192.16;7393269;19;20017;-82
2023/06/14 10:40:36;;;;;;;2.47;0.30;;;;;;;24.49;94.71;100196.97;7393713;19;20011;-83
2023/06/14 10:43:22;;;;;;;2.10;0.30;;;;;;;25.13;93.80;100178.84;7393802;19;20067;-84
2023/06/14 10:46:17;;;;;;;0.68;0.20;;;;;;;24.03;98.84;100181.75;7390326;19;20022;-83
2023/06/14 10:48:44;;;;;;;3.05;0.25;;;;;;;25.71;90.52;100178.66;7390852;19;20015;-81
2023/06/14 10:51:20;;;;;;;1.00;0.20;;;;;;;24.84;94.08;100181.09;7393248;19;20010;-82
2023/06/14 10:53:48;;;;;;;2.20;0.50;;;;;;;25.16;92.93;100175.66;7394666;19;20426;-82
2023/06/14 10:56:28;;;;;;;0.45;0.20;;;;;;;24.52;96.79;100175.09;7394050;19;20074;-82
2023/06/14 10:58:58;;;;;;;0.98;0.30;;;;;;;25.49;89.91;100177.34;7390789;19;20366;-81
2023/06/14 11:01:41;;;;;;;0.77;0.30;;;;;;;25.90;90.49;100163.97;7391063;19;20327;-81
2023/06/14 11:04:12;;;;;;;0.63;0.20;;;;;;;26.91;84.15;100165.22;7394800;19;20018;-82
2023/06/14 11:06:49;;;;;;;2.92;0.03;;;;;;;27.48;81.28;100173.75;7397783;19;20338;-82
2023/06/14 11:09:37;;;;;;;0.20;0.03;;;;;;;27.77;79.40;100171.94;7391417;19;20042;-82
2023/06/14 11:12:06;;;;;;;1.50;0.30;;;;;;;27.22;76.31;100169.38;7393099;19;20094;-83
2023/06/14 11:14:32;;;;;;;1.58;0.43;;;;;;;26.68;75.46;100156.75;7396411;19;20074;-81
2023/06/14 11:16:58;;;;;;;3.47;0.57;;;;;;;27.80;71.64;100165.03;7394872;19;20059;-82
2023/06/14 11:19:26;;;;;;;3.63;0.20;;;;;;;28.54;69.15;100161.88;7395778;19;20011;-82
2023/06/14 11:21:52;;;;;;;2.38;0.10;;;;;;;28.15;68.51;100154.34;7396530;19;20037;-81
2023/06/14 11:24:19;;;;;;;0.73;0.22;;;;;;;26.90;74.65;100155.88;7394087;19;20018;-81
2023/06/14 11:26:47;;;;;;;1.27;0.38;;;;;;;26.64;79.27;100150.69;7392061;19;20054;-81
2023/06/14 11:29:16;;;;;;;4.13;0.20;;;;;;;26.48;78.45;100155.00;7393709;19;20017;-81